PDT5942 KSYR-KPHL
Flight info
| Callsign | PDT5942 |
|---|---|
| Flight time | N/A |
| Altitude | 33000 |
| Route | SYR PTAKI LVZ SPUDS7 |
| Aircraft | E145/M-SDFGIRW/S |
Departure
| Time | N/A |
|---|---|
| Airport | Syracuse Hancock International Airport (KSYR) |
Arrival
| Time | 2026-05-05 01:24 |
|---|---|
| Airport | Philadelphia International Airport (KPHL) |
| Time | Latitude | Longitude | Altitude | Speed | Heading |
|---|---|---|---|---|---|
| 2026-05-05 01:15 | 40.38293 | -75.39304 | 8662 ft | 298 kts | 160° |
| 2026-05-05 01:15 | 40.36406 | -75.38205 | 8218 ft | 294 kts | 160° |
| 2026-05-05 01:15 | 40.34543 | -75.37122 | 7654 ft | 295 kts | 160° |
| 2026-05-05 01:16 | 40.32683 | -75.36039 | 7178 ft | 292 kts | 161° |
| 2026-05-05 01:16 | 40.30854 | -75.34974 | 6993 ft | 277 kts | 161° |
| 2026-05-05 01:16 | 40.29122 | -75.33961 | 6852 ft | 264 kts | 161° |
| 2026-05-05 01:16 | 40.27497 | -75.32987 | 6818 ft | 248 kts | 161° |
| 2026-05-05 01:17 | 40.25932 | -75.32041 | 6543 ft | 245 kts | 161° |
| 2026-05-05 01:17 | 40.24386 | -75.31097 | 6226 ft | 243 kts | 161° |
| 2026-05-05 01:17 | 40.22869 | -75.30167 | 5933 ft | 241 kts | 161° |
| 2026-05-05 01:17 | 40.21348 | -75.29240 | 5629 ft | 239 kts | 161° |
| 2026-05-05 01:18 | 40.19836 | -75.28348 | 5331 ft | 234 kts | 166° |
| 2026-05-05 01:18 | 40.18284 | -75.28123 | 5016 ft | 223 kts | 188° |
| 2026-05-05 01:18 | 40.16730 | -75.28239 | 4716 ft | 221 kts | 188° |
| 2026-05-05 01:18 | 40.15187 | -75.28359 | 4424 ft | 219 kts | 188° |
| 2026-05-05 01:19 | 40.13658 | -75.28479 | 4131 ft | 217 kts | 188° |
| 2026-05-05 01:19 | 40.12171 | -75.28605 | 3994 ft | 208 kts | 188° |
| 2026-05-05 01:19 | 40.10709 | -75.28726 | 3630 ft | 210 kts | 188° |
| 2026-05-05 01:19 | 40.09220 | -75.28861 | 3203 ft | 214 kts | 188° |
| 2026-05-05 01:20 | 40.07733 | -75.29013 | 3000 ft | 207 kts | 188° |
| 2026-05-05 01:20 | 40.06333 | -75.29160 | 2979 ft | 193 kts | 188° |
| 2026-05-05 01:20 | 40.05005 | -75.29299 | 2992 ft | 192 kts | 188° |
| 2026-05-05 01:20 | 40.03663 | -75.29437 | 2991 ft | 192 kts | 188° |
| 2026-05-05 01:21 | 40.02332 | -75.29571 | 2989 ft | 192 kts | 188° |
| 2026-05-05 01:21 | 40.00994 | -75.29611 | 2983 ft | 195 kts | 173° |
| 2026-05-05 01:21 | 39.99664 | -75.29008 | 2645 ft | 213 kts | 164° |
| 2026-05-05 01:21 | 39.98224 | -75.28289 | 2059 ft | 225 kts | 163° |
| 2026-05-05 01:22 | 39.96762 | -75.27566 | 1706 ft | 225 kts | 163° |
| 2026-05-05 01:22 | 39.95282 | -75.26832 | 1408 ft | 220 kts | 162° |
| 2026-05-05 01:22 | 39.93887 | -75.26138 | 1091 ft | 196 kts | 162° |
| 2026-05-05 01:22 | 39.92706 | -75.25553 | 839 ft | 170 kts | 162° |
| 2026-05-05 01:23 | 39.91666 | -75.25039 | 644 ft | 141 kts | 162° |
| 2026-05-05 01:23 | 39.90789 | -75.24605 | 462 ft | 134 kts | 163° |
| 2026-05-05 01:23 | 39.89906 | -75.24174 | 298 ft | 132 kts | 161° |
| 2026-05-05 01:23 | 39.89053 | -75.23751 | 107 ft | 127 kts | 160° |
| 2026-05-05 01:24 | 39.88261 | -75.23354 | 13 ft | 108 kts | 160° |
| 2026-05-05 01:24 | 39.87836 | -75.23148 | 13 ft | 37 kts | 159° |
| 2026-05-05 01:24 | 39.87688 | -75.23113 | 13 ft | 16 kts | 233° |
| 2026-05-05 01:24 | 39.87661 | -75.23192 | 13 ft | 0 kts | 250° |
| 2026-05-05 01:25 | 39.87662 | -75.23196 | 13 ft | 2 kts | 278° |
| 2026-05-05 01:25 | 39.87736 | -75.23251 | 13 ft | 17 kts | 339° |
| 2026-05-05 01:26 | 39.87856 | -75.23321 | 13 ft | 19 kts | 316° |
| 2026-05-05 01:26 | 39.87917 | -75.23440 | 13 ft | 16 kts | 1° |
| 2026-05-05 01:26 | 39.88034 | -75.23482 | 13 ft | 18 kts | 340° |
| 2026-05-05 01:26 | 39.88119 | -75.23569 | 13 ft | 11 kts | 298° |
| 2026-05-05 01:27 | 39.88085 | -75.23640 | 13 ft | 5 kts | 219° |
| 2026-05-05 01:27 | 39.88072 | -75.23654 | 13 ft | 0 kts | 220° |